Time;durP1;ratioP1;P1;durP2;ratioP2;P2;SDS_P1;SDS_P2;PMS_P1;PMS_P2;Temp;Humidity;BMP_temperature;BMP_pressure;BME280_temperature;BME280_humidity;BME280_pressure;Samples;Min_cycle;Max_cycle;Signal;HPM_P1;HPM_P2
2024/01/05 00:00:01;;;;;;;1999.90;999.90;;;3.10;99.90;;;;;;5002130;28;20042;-78
2024/01/05 00:02:27;;;;;;;1999.90;999.90;;;3.00;99.90;;;;;;4986705;28;20042;-77
2024/01/05 00:04:53;;;;;;;1999.90;999.90;;;3.00;99.90;;;;;;5002643;28;20050;-78
2024/01/05 00:07:18;;;;;;;1999.90;999.90;;;3.00;99.90;;;;;;5006008;28;20066;-77
2024/01/05 00:09:44;;;;;;;1999.90;999.90;;;3.00;99.90;;;;;;5006303;28;20065;-77
2024/01/05 00:12:09;;;;;;;1999.90;999.90;;;3.10;99.90;;;;;;4986363;28;20411;-78
2024/01/05 00:14:38;;;;;;;1999.90;999.90;;;3.10;99.90;;;;;;4988689;28;20042;-77
2024/01/05 00:17:05;;;;;;;1999.90;999.90;;;3.00;99.90;;;;;;5003829;28;20394;-78
2024/01/05 00:19:30;;;;;;;1999.90;999.90;;;3.00;99.90;;;;;;5001751;28;20061;-78
2024/01/05 00:21:56;;;;;;;1999.90;999.90;;;3.10;99.90;;;;;;4987457;28;20047;-77
2024/01/05 00:24:22;;;;;;;1999.90;999.90;;;3.00;99.90;;;;;;4988972;28;20035;-78
2024/01/05 00:26:47;;;;;;;1999.90;999.90;;;3.00;99.90;;;;;;4989551;28;20033;-77
2024/01/05 00:29:13;;;;;;;1999.90;999.90;;;3.00;99.90;;;;;;4989454;28;20052;-77
2024/01/05 00:31:39;;;;;;;1999.90;999.90;;;3.00;99.90;;;;;;4986648;28;20045;-77
2024/01/05 00:34:04;;;;;;;1999.90;999.90;;;2.90;99.90;;;;;;5006235;28;20049;-77
2024/01/05 00:36:30;;;;;;;1999.90;999.90;;;3.00;99.90;;;;;;5002003;28;20488;-77
2024/01/05 00:38:56;;;;;;;1999.90;999.90;;;3.00;99.90;;;;;;5005341;28;20038;-78
2024/01/05 00:41:22;;;;;;;1999.90;999.90;;;3.00;99.90;;;;;;4984849;28;20388;-78
2024/01/05 00:43:48;;;;;;;1999.90;999.90;;;3.00;99.90;;;;;;5001535;28;20108;-77
2024/01/05 00:46:14;;;;;;;1999.90;999.90;;;3.00;99.90;;;;;;4987671;28;20034;-77
2024/01/05 00:48:40;;;;;;;1999.90;999.90;;;2.90;99.90;;;;;;4988181;28;20043;-77
2024/01/05 00:51:06;;;;;;;1999.90;999.90;;;2.90;99.90;;;;;;5006332;28;20088;-77
2024/01/05 00:53:32;;;;;;;1999.90;999.90;;;2.90;99.90;;;;;;4988706;28;20418;-77
2024/01/05 00:55:57;;;;;;;1999.90;999.90;;;2.90;99.90;;;;;;4984442;28;20038;-77
2024/01/05 00:58:23;;;;;;;1999.90;999.90;;;2.80;99.90;;;;;;5003174;28;20033;-77
2024/01/05 01:00:49;;;;;;;1999.90;999.90;;;2.90;99.90;;;;;;5001869;28;20117;-77
2024/01/05 01:03:15;;;;;;;1999.90;999.90;;;2.80;99.90;;;;;;4986500;28;20046;-77
2024/01/05 01:05:40;;;;;;;1999.90;999.90;;;2.80;99.90;;;;;;4986533;28;20514;-77
2024/01/05 01:08:06;;;;;;;1999.90;999.90;;;2.80;99.90;;;;;;5001841;28;20122;-77
2024/01/05 01:10:31;;;;;;;1999.90;999.90;;;2.80;99.90;;;;;;5004065;28;20044;-77
2024/01/05 01:12:57;;;;;;;1999.90;999.90;;;3.00;99.90;;;;;;4992242;28;20038;-77
2024/01/05 01:15:22;;;;;;;1999.90;999.90;;;2.80;99.90;;;;;;4984177;28;20500;-77
2024/01/05 01:17:48;;;;;;;1999.90;999.90;;;2.80;99.90;;;;;;4982329;28;20525;-77
2024/01/05 01:20:14;;;;;;;1999.90;999.90;;;2.80;99.90;;;;;;4988170;28;20122;-78
2024/01/05 01:22:39;;;;;;;1999.90;999.90;;;2.80;99.90;;;;;;5003693;28;20449;-77
2024/01/05 01:25:05;;;;;;;1999.90;999.90;;;2.80;99.90;;;;;;4986008;28;20058;-77
2024/01/05 01:27:31;;;;;;;1999.90;999.90;;;2.80;99.90;;;;;;5001244;28;20030;-77
2024/01/05 01:29:56;;;;;;;1999.90;999.90;;;2.80;99.90;;;;;;5001202;28;20049;-78
2024/01/05 01:32:22;;;;;;;1999.90;999.90;;;2.80;99.90;;;;;;5001853;28;20125;-76
2024/01/05 01:34:48;;;;;;;1999.90;999.90;;;2.80;99.90;;;;;;5002512;28;20509;-77
2024/01/05 01:37:13;;;;;;;1999.90;999.90;;;2.80;99.90;;;;;;5000557;28;20038;-76
2024/01/05 01:39:39;;;;;;;1999.90;999.90;;;2.70;99.90;;;;;;4987604;28;20074;-76
2024/01/05 01:42:04;;;;;;;1999.90;999.90;;;2.80;99.90;;;;;;4984434;28;20034;-77
2024/01/05 01:44:30;;;;;;;1999.90;999.90;;;2.70;99.90;;;;;;4988463;28;20092;-76
2024/01/05 01:46:56;;;;;;;1999.90;999.90;;;2.80;99.90;;;;;;5001860;28;20518;-77
2024/01/05 01:49:23;;;;;;;1999.90;999.90;;;2.80;99.90;;;;;;4988582;28;20503;-77
2024/01/05 01:51:49;;;;;;;1999.90;999.90;;;2.80;99.90;;;;;;5002852;28;20045;-77
2024/01/05 01:54:15;;;;;;;1999.90;999.90;;;2.70;99.90;;;;;;5000027;28;20034;-80
2024/01/05 01:56:43;;;;;;;1999.90;999.90;;;2.80;99.90;;;;;;5006613;28;20038;-77
2024/01/05 01:59:08;;;;;;;1999.90;999.90;;;2.70;99.90;;;;;;4999256;28;20050;-77
2024/01/05 02:01:35;;;;;;;1999.90;999.90;;;2.70;99.90;;;;;;5001683;28;20039;-76
2024/01/05 02:04:01;;;;;;;1999.90;999.90;;;2.70;99.90;;;;;;5002756;28;20560;-76
2024/01/05 02:06:27;;;;;;;1999.90;999.90;;;2.80;99.90;;;;;;4986935;28;20084;-77
2024/01/05 02:08:53;;;;;;;1999.90;999.90;;;2.70;99.90;;;;;;4983321;28;20026;-77
2024/01/05 02:11:18;;;;;;;1999.90;999.90;;;2.80;99.90;;;;;;4999544;28;20141;-77
2024/01/05 02:13:44;;;;;;;1999.90;999.90;;;2.70;99.90;;;;;;5000646;28;20109;-77
2024/01/05 02:16:10;;;;;;;1999.90;999.90;;;2.70;99.90;;;;;;4986986;28;20038;-76
2024/01/05 02:18:35;;;;;;;1999.90;999.90;;;2.70;99.90;;;;;;4999424;28;20552;-76
2024/01/05 02:21:03;;;;;;;1999.90;999.90;;;2.70;99.90;;;;;;5003609;28;20510;-76
2024/01/05 02:23:30;;;;;;;1999.90;999.90;;;2.70;99.90;;;;;;5001123;28;20038;-77
2024/01/05 02:25:57;;;;;;;1999.90;999.90;;;2.60;99.90;;;;;;4985850;28;20042;-77
2024/01/05 02:28:23;;;;;;;1999.90;999.90;;;2.70;99.90;;;;;;4999015;28;20041;-77
2024/01/05 02:30:48;;;;;;;1999.90;999.90;;;2.70;99.90;;;;;;5007084;28;20521;-76
2024/01/05 02:33:14;;;;;;;1999.90;999.90;;;2.70;99.90;;;;;;5002131;28;20050;-76
2024/01/05 02:35:40;;;;;;;1999.90;999.90;;;2.60;99.90;;;;;;5000620;28;20057;-76
2024/01/05 02:38:06;;;;;;;1999.90;999.90;;;2.60;99.90;;;;;;4984083;28;20525;-76
2024/01/05 02:40:32;;;;;;;1999.90;999.90;;;2.60;99.90;;;;;;4986553;28;20045;-76
2024/01/05 02:42:57;;;;;;;1999.90;999.90;;;3.20;99.90;;;;;;5003523;28;20038;-76
2024/01/05 02:45:24;;;;;;;1999.90;999.90;;;2.70;99.90;;;;;;5003442;28;20088;-75
2024/01/05 02:47:50;;;;;;;1999.90;999.90;;;2.70;99.90;;;;;;5000243;28;20046;-75
2024/01/05 02:50:17;;;;;;;1999.90;999.90;;;2.70;99.90;;;;;;4985005;28;20038;-76
2024/01/05 02:52:42;;;;;;;1999.90;999.90;;;2.70;99.90;;;;;;5001285;28;20050;-76
2024/01/05 02:55:10;;;;;;;1999.90;999.90;;;2.70;99.90;;;;;;4999649;28;20041;-76
2024/01/05 02:57:36;;;;;;;1999.90;999.90;;;2.70;99.90;;;;;;5001966;28;20042;-76
2024/01/05 03:00:03;;;;;;;1999.90;999.90;;;2.70;99.90;;;;;;4999292;28;20042;-76
2024/01/05 03:02:29;;;;;;;1999.90;999.90;;;2.70;99.90;;;;;;4986948;28;20038;-76
2024/01/05 03:04:54;;;;;;;1999.90;999.90;;;2.70;99.90;;;;;;5003556;28;20576;-76
2024/01/05 03:07:20;;;;;;;1999.90;999.90;;;2.60;99.90;;;;;;5002588;28;20033;-76
2024/01/05 03:09:46;;;;;;;1999.90;999.90;;;2.70;99.90;;;;;;5003077;28;20107;-76
2024/01/05 03:12:11;;;;;;;1999.90;999.90;;;2.60;99.90;;;;;;5002876;28;20125;-76
2024/01/05 03:14:37;;;;;;;1999.90;999.90;;;2.70;99.90;;;;;;4999149;28;20048;-76
2024/01/05 03:17:03;;;;;;;1999.90;999.90;;;2.60;99.90;;;;;;5005294;28;20046;-76
2024/01/05 03:19:28;;;;;;;1999.90;999.90;;;2.70;99.90;;;;;;5000454;28;20065;-76
2024/01/05 03:21:54;;;;;;;1999.90;999.90;;;2.60;99.90;;;;;;5000688;28;20104;-76
2024/01/05 03:24:20;;;;;;;1999.90;999.90;;;2.70;99.90;;;;;;5002227;28;20034;-76
2024/01/05 03:26:46;;;;;;;1999.90;999.90;;;2.70;99.90;;;;;;4998733;28;20034;-75
2024/01/05 03:29:12;;;;;;;1999.90;999.90;;;2.70;99.90;;;;;;4998315;28;20038;-77
2024/01/05 03:31:37;;;;;;;1999.90;999.90;;;2.70;99.90;;;;;;5003355;28;20128;-76
2024/01/05 03:34:03;;;;;;;1999.90;999.90;;;2.70;99.90;;;;;;4982759;28;20064;-76
2024/01/05 03:36:29;;;;;;;1999.90;999.90;;;2.70;99.90;;;;;;5000586;28;20073;-78
2024/01/05 03:38:55;;;;;;;1999.90;999.90;;;2.70;99.90;;;;;;5003575;28;20451;-76
2024/01/05 03:41:21;;;;;;;1999.90;999.90;;;2.70;99.90;;;;;;5001472;28;20503;-76
2024/01/05 03:43:46;;;;;;;1999.90;999.90;;;2.70;99.90;;;;;;5000668;28;20068;-76
2024/01/05 03:46:12;;;;;;;1999.90;999.90;;;2.70;99.90;;;;;;5001976;28;20046;-76
2024/01/05 03:48:38;;;;;;;1999.90;999.90;;;2.70;99.90;;;;;;4998965;28;20038;-76
2024/01/05 03:51:04;;;;;;;1999.90;999.90;;;2.70;99.90;;;;;;5002605;28;20046;-76
2024/01/05 03:53:30;;;;;;;1999.90;999.90;;;2.70;99.90;;;;;;5002607;28;20129;-76
2024/01/05 03:56:00;;;;;;;1999.90;999.90;;;2.70;99.90;;;;;;4999616;28;20270;-77
2024/01/05 03:58:25;;;;;;;1999.90;999.90;;;2.70;99.90;;;;;;4984564;28;20072;-76
2024/01/05 04:00:51;;;;;;;1999.90;999.90;;;2.70;99.90;;;;;;4997429;28;20402;-76
2024/01/05 04:03:17;;;;;;;1999.90;999.90;;;2.80;99.90;;;;;;5001958;28;20037;-78
2024/01/05 04:05:43;;;;;;;1999.90;999.90;;;2.80;99.90;;;;;;4999132;28;20490;-76
2024/01/05 04:08:09;;;;;;;1999.90;999.90;;;2.70;99.90;;;;;;4999986;28;20038;-77
2024/01/05 04:10:35;;;;;;;1999.90;999.90;;;2.70;99.90;;;;;;4985935;28;20049;-76
2024/01/05 04:13:01;;;;;;;1999.90;999.90;;;2.70;99.90;;;;;;5006111;28;20034;-75
2024/01/05 04:15:27;;;;;;;1999.90;999.90;;;2.70;99.90;;;;;;4998762;28;20155;-76
2024/01/05 04:17:53;;;;;;;1999.90;999.90;;;2.70;99.90;;;;;;5001897;28;20415;-76
2024/01/05 04:20:19;;;;;;;1999.90;999.90;;;2.70;99.90;;;;;;4998198;28;20046;-76
2024/01/05 04:22:45;;;;;;;1999.90;999.90;;;2.70;99.90;;;;;;5020141;28;20096;-77
2024/01/05 04:25:10;;;;;;;1999.90;999.90;;;2.70;99.90;;;;;;5004863;28;20062;-78
2024/01/05 04:27:37;;;;;;;1999.90;999.90;;;2.70;99.90;;;;;;4997330;28;20054;-78
2024/01/05 04:30:03;;;;;;;1999.90;999.90;;;2.80;99.90;;;;;;4984841;28;20076;-77
2024/01/05 04:32:29;;;;;;;1999.90;999.90;;;2.70;99.90;;;;;;4981645;28;20042;-77
2024/01/05 04:34:55;;;;;;;1999.90;999.90;;;2.70;99.90;;;;;;5002574;28;20050;-77
2024/01/05 04:37:22;;;;;;;1999.90;999.90;;;2.80;99.90;;;;;;4998412;28;20137;-77
2024/01/05 04:39:47;;;;;;;1999.90;999.90;;;2.80;99.90;;;;;;4983503;28;20133;-77
2024/01/05 04:42:14;;;;;;;1999.90;999.90;;;2.80;99.90;;;;;;5000709;28;20490;-77
2024/01/05 04:44:40;;;;;;;1999.90;999.90;;;2.80;99.90;;;;;;5002097;28;20465;-77
2024/01/05 04:47:06;;;;;;;1999.90;999.90;;;2.80;99.90;;;;;;4998001;28;20066;-77
2024/01/05 04:49:33;;;;;;;1999.90;999.90;;;2.80;99.90;;;;;;4982817;28;20057;-77
2024/01/05 04:52:02;;;;;;;1999.90;999.90;;;2.90;99.90;;;;;;5005091;28;20046;-78
2024/01/05 04:54:28;;;;;;;1999.90;999.90;;;2.80;99.90;;;;;;5005933;28;20035;-77
2024/01/05 04:56:53;;;;;;;1999.90;999.90;;;2.80;99.90;;;;;;4988439;28;20454;-77
2024/01/05 04:59:22;;;;;;;1999.90;999.90;;;2.80;99.90;;;;;;4986926;28;20038;-78
2024/01/05 05:01:48;;;;;;;1999.90;999.90;;;2.80;99.90;;;;;;5004591;28;20041;-78
2024/01/05 05:04:14;;;;;;;1999.90;999.90;;;2.80;99.90;;;;;;5001972;28;20165;-78
2024/01/05 05:06:40;;;;;;;1999.90;999.90;;;2.80;99.90;;;;;;5004256;28;20087;-77
2024/01/05 05:09:05;;;;;;;1999.90;999.90;;;2.80;99.90;;;;;;4985442;28;20102;-77
2024/01/05 05:11:31;;;;;;;1999.90;999.90;;;2.80;99.90;;;;;;5001832;28;20038;-77
2024/01/05 05:13:57;;;;;;;1999.90;999.90;;;2.80;99.90;;;;;;5002532;28;20041;-77
2024/01/05 05:16:22;;;;;;;1999.90;999.90;;;2.80;99.90;;;;;;5004619;28;20042;-77
2024/01/05 05:18:49;;;;;;;1999.90;999.90;;;2.80;99.90;;;;;;5001695;28;20060;-78
2024/01/05 05:21:15;;;;;;;1999.90;999.90;;;2.80;99.90;;;;;;4990745;28;20106;-77
2024/01/05 05:23:41;;;;;;;1999.90;999.90;;;2.80;99.90;;;;;;5000626;28;20037;-77
2024/01/05 05:26:07;;;;;;;1999.90;999.90;;;2.80;99.90;;;;;;4989279;28;20430;-77
2024/01/05 05:28:33;;;;;;;1999.90;999.90;;;2.80;99.90;;;;;;5005056;28;20060;-77
2024/01/05 05:30:59;;;;;;;1999.90;999.90;;;2.80;99.90;;;;;;4985129;28;20042;-77
2024/01/05 05:33:25;;;;;;;1999.90;999.90;;;2.80;99.90;;;;;;5008959;28;20049;-77
2024/01/05 05:35:50;;;;;;;1999.90;999.90;;;2.90;99.90;;;;;;5004807;28;20129;-78
2024/01/05 05:38:16;;;;;;;1999.90;999.90;;;2.90;99.90;;;;;;5001995;28;20034;-78
2024/01/05 05:40:41;;;;;;;1999.90;999.90;;;2.80;99.90;;;;;;5008302;28;20049;-78
2024/01/05 05:43:07;;;;;;;1999.90;999.90;;;2.90;99.90;;;;;;5003509;28;20066;-78
2024/01/05 05:45:33;;;;;;;1999.90;999.90;;;2.90;99.90;;;;;;5003264;28;20034;-78
2024/01/05 05:47:59;;;;;;;1999.90;999.90;;;2.90;99.90;;;;;;5005354;28;20038;-77
2024/01/05 05:50:24;;;;;;;1999.90;999.90;;;2.90;99.90;;;;;;4997353;28;20050;-78
2024/01/05 05:52:51;;;;;;;1999.90;999.90;;;2.90;99.90;;;;;;5005932;28;20549;-77
2024/01/05 05:55:17;;;;;;;1999.90;999.90;;;2.90;99.90;;;;;;5005295;28;20045;-77
2024/01/05 05:57:43;;;;;;;1999.90;999.90;;;2.90;99.90;;;;;;5005273;28;20041;-78
2024/01/05 06:00:10;;;;;;;1999.90;999.90;;;2.90;99.90;;;;;;5005185;28;20064;-77
2024/01/05 06:02:37;;;;;;;1999.90;999.90;;;2.90;99.90;;;;;;4999872;28;20038;-77
2024/01/05 06:05:03;;;;;;;1999.90;999.90;;;3.00;99.90;;;;;;5002507;28;20038;-77
2024/01/05 06:07:29;;;;;;;1999.90;999.90;;;3.00;99.90;;;;;;4999725;28;20053;-78
2024/01/05 06:09:54;;;;;;;1999.90;999.90;;;3.00;99.90;;;;;;5003572;28;20490;-77
2024/01/05 06:12:20;;;;;;;1999.90;999.90;;;3.00;99.90;;;;;;4999715;28;20076;-77
2024/01/05 06:14:46;;;;;;;1999.90;999.90;;;3.00;99.90;;;;;;4985423;28;20049;-77
2024/01/05 06:17:11;;;;;;;1999.90;999.90;;;3.00;99.90;;;;;;4999397;28;20046;-77
2024/01/05 06:19:37;;;;;;;1999.90;999.90;;;3.00;99.90;;;;;;5001236;28;20089;-77
2024/01/05 06:22:03;;;;;;;1999.90;999.90;;;3.00;99.90;;;;;;4987183;28;20450;-77
2024/01/05 06:24:31;;;;;;;1999.90;999.90;;;3.00;99.90;;;;;;4982833;28;20410;-77
2024/01/05 06:26:56;;;;;;;1999.90;999.90;;;3.10;99.90;;;;;;5003932;28;20038;-77
2024/01/05 06:29:22;;;;;;;1999.90;999.90;;;3.10;99.90;;;;;;5001197;28;20089;-77
2024/01/05 06:31:50;;;;;;;1999.90;999.90;;;3.10;99.90;;;;;;5001131;28;20126;-77
2024/01/05 06:34:16;;;;;;;1999.90;999.90;;;3.10;99.90;;;;;;4988812;28;20483;-77
2024/01/05 06:36:41;;;;;;;1999.90;999.90;;;3.10;99.90;;;;;;4999154;28;20045;-75
2024/01/05 06:39:07;;;;;;;1999.90;999.90;;;3.10;99.90;;;;;;4988288;28;20083;-76
2024/01/05 06:41:33;;;;;;;1999.90;999.90;;;3.10;99.90;;;;;;5002628;28;20030;-77
2024/01/05 06:43:58;;;;;;;1999.90;999.90;;;3.10;99.90;;;;;;5002257;28;20039;-76
2024/01/05 06:46:24;;;;;;;1999.90;999.90;;;3.20;99.90;;;;;;5000719;28;20056;-76
2024/01/05 06:48:50;;;;;;;1999.90;999.90;;;3.10;99.90;;;;;;4991077;28;20026;-76
2024/01/05 06:51:15;;;;;;;1999.90;999.90;;;3.20;99.90;;;;;;5004027;28;20053;-76
2024/01/05 06:53:41;;;;;;;1999.90;999.90;;;3.20;99.90;;;;;;5000652;28;20038;-76
2024/01/05 06:56:08;;;;;;;1999.90;999.90;;;3.20;99.90;;;;;;5004881;28;20035;-77
2024/01/05 06:58:34;;;;;;;1999.90;999.90;;;3.20;99.90;;;;;;5001229;28;20042;-77
2024/01/05 07:01:01;;;;;;;1999.90;999.90;;;3.20;99.90;;;;;;5001620;28;20084;-77
2024/01/05 07:03:26;;;;;;;1999.90;999.90;;;3.20;99.90;;;;;;4986157;28;20113;-76
2024/01/05 07:05:52;;;;;;;1999.90;999.90;;;3.20;99.90;;;;;;5002896;28;20096;-76
2024/01/05 07:08:18;;;;;;;1999.90;999.90;;;3.20;99.90;;;;;;5002291;28;20100;-76
2024/01/05 07:10:44;;;;;;;1999.90;999.90;;;3.20;99.90;;;;;;5002110;28;20117;-76
2024/01/05 07:13:10;;;;;;;1999.90;999.90;;;3.20;99.90;;;;;;5002898;28;20104;-77
2024/01/05 07:15:35;;;;;;;1999.90;999.90;;;3.20;99.90;;;;;;5003803;28;20104;-77
2024/01/05 07:18:01;;;;;;;1999.90;999.90;;;3.30;99.90;;;;;;5000921;28;20396;-77
2024/01/05 07:20:27;;;;;;;1999.90;999.90;;;3.30;99.90;;;;;;5000831;28;20125;-76
2024/01/05 07:22:52;;;;;;;1999.90;999.90;;;3.20;99.90;;;;;;4998679;28;20084;-76
2024/01/05 07:25:18;;;;;;;1999.90;999.90;;;3.30;99.90;;;;;;5002804;28;20414;-76
2024/01/05 07:27:43;;;;;;;1999.90;999.90;;;3.20;99.90;;;;;;5004849;28;20037;-76
2024/01/05 07:30:10;;;;;;;1999.90;999.90;;;3.30;99.90;;;;;;5005575;28;20577;-77
2024/01/05 07:32:37;;;;;;;1999.90;999.90;;;3.30;99.90;;;;;;5000651;28;20053;-76
2024/01/05 07:35:04;;;;;;;1999.90;999.90;;;3.30;99.90;;;;;;5003032;28;20042;-77
2024/01/05 07:37:29;;;;;;;1999.90;999.90;;;3.30;99.90;;;;;;4984887;28;20084;-76
2024/01/05 07:39:55;;;;;;;1999.90;999.90;;;3.30;99.90;;;;;;4999664;28;20042;-77
2024/01/05 07:42:21;;;;;;;1999.90;999.90;;;3.40;99.90;;;;;;4995285;28;20046;-77
2024/01/05 07:44:46;;;;;;;1999.90;999.90;;;3.40;99.90;;;;;;4999976;28;20121;-77
2024/01/05 07:47:12;;;;;;;1999.90;999.90;;;3.30;99.90;;;;;;5000095;28;20056;-77
2024/01/05 07:49:39;;;;;;;1999.90;999.90;;;3.40;99.90;;;;;;4969941;28;20062;-76
2024/01/05 07:52:05;;;;;;;1999.90;999.90;;;3.40;99.90;;;;;;5001904;28;20124;-77
2024/01/05 07:54:31;;;;;;;1999.90;999.90;;;3.40;99.90;;;;;;4997732;28;20437;-76
2024/01/05 07:56:56;;;;;;;1999.90;999.90;;;3.40;99.90;;;;;;5003274;28;20050;-77
2024/01/05 07:59:23;;;;;;;1999.90;999.90;;;3.40;99.90;;;;;;5000165;28;20403;-77
2024/01/05 08:01:52;;;;;;;1999.90;999.90;;;3.40;99.90;;;;;;5003099;28;20041;-78
2024/01/05 08:04:17;;;;;;;1999.90;999.90;;;3.60;99.90;;;;;;5004357;28;20038;-78
2024/01/05 08:06:47;;;;;;;1999.90;999.90;;;3.50;99.90;;;;;;4986892;28;20084;-78
2024/01/05 08:09:13;;;;;;;1999.90;999.90;;;3.50;99.90;;;;;;4988361;28;20502;-78
2024/01/05 08:11:41;;;;;;;1999.90;999.90;;;4.00;99.90;;;;;;4998863;28;20117;-78
2024/01/05 08:14:09;;;;;;;1999.90;999.90;;;3.50;99.90;;;;;;5005125;28;20076;-78
2024/01/05 08:16:35;;;;;;;1999.90;999.90;;;3.50;99.90;;;;;;4988403;28;20049;-79
2024/01/05 08:19:01;;;;;;;1999.90;999.90;;;3.50;99.90;;;;;;5007491;28;20054;-79
2024/01/05 08:21:26;;;;;;;1999.90;999.90;;;3.50;99.90;;;;;;5002589;28;20106;-79
2024/01/05 08:23:52;;;;;;;1999.90;999.90;;;3.60;99.90;;;;;;5002095;28;20046;-80
2024/01/05 08:26:18;;;;;;;1999.90;999.90;;;3.60;99.90;;;;;;5009554;28;20030;-78
2024/01/05 08:28:44;;;;;;;1999.90;999.90;;;3.70;99.90;;;;;;4997285;28;20057;-78
2024/01/05 08:31:10;;;;;;;1999.90;999.90;;;3.70;99.90;;;;;;5011455;28;20108;-78
2024/01/05 08:33:36;;;;;;;1999.90;999.90;;;3.70;99.90;;;;;;5012755;28;20607;-78
2024/01/05 08:36:01;;;;;;;1999.90;999.90;;;3.70;99.90;;;;;;5011966;28;20060;-78
2024/01/05 08:38:27;;;;;;;1999.90;999.90;;;3.70;99.90;;;;;;5011469;28;20081;-79
2024/01/05 08:40:53;;;;;;;1999.90;999.90;;;3.70;99.90;;;;;;4988348;28;20100;-79
2024/01/05 08:43:19;;;;;;;1999.90;999.90;;;3.80;99.90;;;;;;5008151;28;20121;-78
2024/01/05 08:45:48;;;;;;;1999.90;999.90;;;3.80;99.90;;;;;;5005972;28;20034;-78
2024/01/05 08:48:15;;;;;;;1999.90;999.90;;;3.70;99.90;;;;;;4987465;28;20088;-78
2024/01/05 08:50:41;;;;;;;1999.90;999.90;;;3.70;99.90;;;;;;5003677;28;20430;-77
2024/01/05 08:53:08;;;;;;;1999.90;999.90;;;3.80;99.90;;;;;;5004758;28;20044;-76
2024/01/05 08:55:35;;;;;;;1999.90;999.90;;;3.80;99.90;;;;;;5002212;28;20061;-78
2024/01/05 08:58:02;;;;;;;1999.90;999.90;;;3.80;99.90;;;;;;5004537;28;20041;-77
2024/01/05 09:00:28;;;;;;;1999.90;999.90;;;3.80;99.90;;;;;;5001419;28;20042;-78
2024/01/05 09:02:54;;;;;;;1999.90;999.90;;;3.80;99.90;;;;;;4988898;28;20090;-78
2024/01/05 09:05:20;;;;;;;1999.90;999.90;;;3.80;99.90;;;;;;5002483;28;20102;-77
2024/01/05 09:07:47;;;;;;;1999.90;999.90;;;3.80;99.90;;;;;;5006298;28;20675;-77
2024/01/05 09:10:13;;;;;;;1999.90;999.90;;;3.80;99.90;;;;;;5003115;28;20042;-78
2024/01/05 09:12:38;;;;;;;1999.90;999.90;;;3.90;99.90;;;;;;5002930;28;20409;-78
2024/01/05 09:15:05;;;;;;;1999.90;999.90;;;3.90;99.90;;;;;;5000864;28;20105;-78
2024/01/05 09:17:31;;;;;;;1999.90;999.90;;;3.90;99.90;;;;;;4987921;28;20041;-77
2024/01/05 09:19:56;;;;;;;1999.90;999.90;;;3.80;99.90;;;;;;5001650;28;20058;-78
2024/01/05 09:22:22;;;;;;;1999.90;999.90;;;3.90;99.90;;;;;;4987515;28;20139;-78
2024/01/05 09:24:47;;;;;;;1999.90;999.90;;;3.90;99.90;;;;;;5002081;28;20030;-76
2024/01/05 09:27:13;;;;;;;1999.90;999.90;;;5.00;99.90;;;;;;5002669;28;20030;-78
2024/01/05 09:29:38;;;;;;;1999.90;999.90;;;4.00;99.90;;;;;;5001336;28;20499;-78
2024/01/05 09:32:04;;;;;;;1999.90;999.90;;;4.00;99.90;;;;;;4986856;28;20038;-78
2024/01/05 09:34:30;;;;;;;1999.90;999.90;;;4.00;99.90;;;;;;5004983;28;20064;-78
2024/01/05 09:36:56;;;;;;;1999.90;999.90;;;4.00;99.90;;;;;;4987587;28;20125;-77
2024/01/05 09:39:21;;;;;;;1999.90;999.90;;;4.00;99.90;;;;;;4988985;28;20529;-77
2024/01/05 09:41:48;;;;;;;1999.90;999.90;;;4.00;99.90;;;;;;5006740;28;20122;-79
2024/01/05 09:44:15;;;;;;;1999.90;999.90;;;4.00;99.90;;;;;;5005979;28;20046;-77
2024/01/05 09:46:42;;;;;;;1999.90;999.90;;;4.00;99.90;;;;;;5002499;28;20427;-78
2024/01/05 09:49:09;;;;;;;1999.90;999.90;;;4.10;99.90;;;;;;4989135;28;20040;-79
2024/01/05 09:51:35;;;;;;;1999.90;999.90;;;4.10;99.90;;;;;;5003636;28;20519;-79
2024/01/05 09:54:02;;;;;;;1999.90;999.90;;;4.20;99.90;;;;;;5005120;28;20118;-79
2024/01/05 09:56:29;;;;;;;1999.90;999.90;;;4.20;99.90;;;;;;5005559;28;20042;-78
2024/01/05 09:58:55;;;;;;;1999.90;999.90;;;4.20;99.90;;;;;;5007986;28;20499;-78
2024/01/05 10:01:27;;;;;;;1999.90;999.90;;;4.20;99.90;;;;;;4991044;28;20070;-79
2024/01/05 10:04:03;;;;;;;1999.90;999.90;;;4.70;99.90;;;;;;4991948;28;20041;-79
2024/01/05 10:06:30;;;;;;;1999.90;999.90;;;4.30;99.90;;;;;;5008214;28;20068;-78
2024/01/05 10:09:00;;;;;;;1999.90;999.90;;;4.40;99.90;;;;;;4986500;28;20034;-77
2024/01/05 10:11:30;;;;;;;1999.90;999.90;;;4.40;99.90;;;;;;5000356;28;20046;-78
2024/01/05 10:14:04;;;;;;;1999.90;999.90;;;4.40;99.90;;;;;;4998710;28;20056;-77
2024/01/05 10:16:39;;;;;;;1999.90;999.90;;;4.50;99.90;;;;;;5005990;28;20046;-78
2024/01/05 10:19:19;;;;;;;1999.90;999.90;;;4.50;99.90;;;;;;5001538;28;20163;-77
2024/01/05 10:21:46;;;;;;;1999.90;999.90;;;4.50;99.90;;;;;;4983412;28;20042;-78
2024/01/05 10:24:29;;;;;;;1999.90;999.90;;;4.90;99.90;;;;;;5001828;28;20041;-77
2024/01/05 10:27:14;;;;;;;1999.90;999.90;;;4.60;99.90;;;;;;4984461;28;20479;-78
2024/01/05 10:29:44;;;;;;;1999.90;999.90;;;4.60;99.90;;;;;;5000496;28;20126;-77
2024/01/05 10:32:19;;;;;;;1999.90;999.90;;;5.50;99.90;;;;;;4986654;28;20435;-77
2024/01/05 10:34:46;;;;;;;1999.90;999.90;;;4.50;99.90;;;;;;4983737;28;20044;-79
2024/01/05 10:37:13;;;;;;;1999.90;999.90;;;4.50;99.90;;;;;;4984545;28;20145;-79
2024/01/05 10:39:45;;;;;;;1999.90;999.90;;;4.60;99.90;;;;;;4991554;28;20061;-79
2024/01/05 10:42:20;;;;;;;1999.90;999.90;;;4.60;99.90;;;;;;5002692;28;20041;-78
2024/01/05 10:44:51;;;;;;;1999.90;999.90;;;4.60;99.90;;;;;;5006249;28;20125;-78
2024/01/05 10:47:22;;;;;;;1999.90;999.90;;;4.60;99.90;;;;;;4999053;28;20069;-77
2024/01/05 10:49:50;;;;;;;1999.90;999.90;;;4.60;99.90;;;;;;5003586;28;20048;-77
2024/01/05 10:52:17;;;;;;;1999.90;999.90;;;4.60;99.90;;;;;;4983749;28;20039;-79
2024/01/05 10:54:48;;;;;;;1999.90;999.90;;;4.60;99.90;;;;;;5007482;28;20505;-78
2024/01/05 10:57:15;;;;;;;1999.90;999.90;;;4.60;99.90;;;;;;5002978;28;20034;-78
2024/01/05 10:59:52;;;;;;;1999.90;999.90;;;4.60;99.90;;;;;;5000565;28;20582;-78
2024/01/05 11:02:30;;;;;;;1999.90;999.90;;;4.60;99.90;;;;;;5000128;28;20185;-77
2024/01/05 11:05:09;;;;;;;1999.90;999.90;;;4.60;99.90;;;;;;4985232;28;20308;-77
2024/01/05 11:07:36;;;;;;;1999.90;999.90;;;4.70;99.90;;;;;;4999729;28;20049;-77
2024/01/05 11:10:20;;;;;;;1999.90;999.90;;;4.70;99.90;;;;;;5000087;28;20041;-78
2024/01/05 11:13:22;;;;;;;1999.90;999.90;;;4.70;99.90;;;;;;5000911;28;20045;-76
2024/01/05 11:16:07;;;;;;;1999.90;999.90;;;4.80;99.90;;;;;;5009454;28;20077;-77
2024/01/05 11:18:56;;;;;;;1999.90;999.90;;;4.80;99.90;;;;;;4987152;28;20062;-77
2024/01/05 11:21:48;;;;;;;1999.90;999.90;;;4.80;99.90;;;;;;5001187;28;20061;-76
2024/01/05 11:24:15;;;;;;;1999.90;999.90;;;4.90;99.90;;;;;;5003070;28;20042;-76
2024/01/05 11:26:44;;;;;;;1999.90;999.90;;;4.90;99.90;;;;;;4995935;28;20042;-76
2024/01/05 11:29:12;;;;;;;1999.90;999.90;;;4.90;99.90;;;;;;4987703;28;20033;-77
2024/01/05 11:31:47;;;;;;;1999.90;999.90;;;5.00;99.90;;;;;;4988430;28;20042;-77
2024/01/05 11:34:35;;;;;;;1999.90;999.90;;;5.00;99.90;;;;;;5002504;28;20092;-77
2024/01/05 11:37:05;;;;;;;1999.90;999.90;;;5.10;99.90;;;;;;4999768;28;20034;-77
2024/01/05 11:40:03;;;;;;;1999.90;999.90;;;5.10;99.90;;;;;;4997815;28;20042;-77
2024/01/05 11:42:31;;;;;;;1999.90;999.90;;;5.00;99.90;;;;;;5005121;28;20068;-77
2024/01/05 11:44:59;;;;;;;1999.90;999.90;;;5.10;99.90;;;;;;4998153;28;20046;-78
2024/01/05 11:47:55;;;;;;;1999.90;999.90;;;5.10;99.90;;;;;;4997772;28;20130;-77
2024/01/05 11:50:27;;;;;;;1999.90;999.90;;;5.10;99.90;;;;;;4987579;28;20511;-79
2024/01/05 11:53:12;;;;;;;1999.90;999.90;;;5.10;99.90;;;;;;5002922;28;20375;-79
2024/01/05 11:55:44;;;;;;;1999.90;999.90;;;5.10;99.90;;;;;;4984070;28;20302;-79
2024/01/05 11:58:15;;;;;;;1999.90;999.90;;;5.80;99.90;;;;;;4980808;28;20466;-79
2024/01/05 12:00:42;;;;;;;1999.90;999.90;;;5.10;99.90;;;;;;4988359;28;20044;-80
2024/01/05 12:03:08;;;;;;;1999.90;999.90;;;5.10;99.90;;;;;;4996047;28;20289;-80
2024/01/05 12:05:34;;;;;;;1999.90;999.90;;;5.10;99.90;;;;;;4989593;28;20039;-80
2024/01/05 12:08:01;;;;;;;1999.90;999.90;;;5.10;99.90;;;;;;5009356;28;20033;-79